Time;durP1;ratioP1;P1;durP2;ratioP2;P2;SDS_P1;SDS_P2;PMS_P1;PMS_P2;Temp;Humidity;BMP_temperature;BMP_pressure;BME280_temperature;BME280_humidity;BME280_pressure;Samples;Min_cycle;Max_cycle;Signal;HPM_P1;HPM_P2
2022/09/16 00:00:19;;;;;;;0.00;0.00;;;14.40;99.90;;;;;;5034213;28;20181;-67
2022/09/16 00:02:45;;;;;;;0.10;0.10;;;14.40;99.90;;;;;;5035010;28;20586;-67
2022/09/16 00:05:11;;;;;;;0.10;0.10;;;14.40;99.90;;;;;;5049182;28;20262;-67
2022/09/16 00:07:37;;;;;;;0.00;0.00;;;14.40;99.90;;;;;;5042087;28;20652;-67
2022/09/16 00:10:03;;;;;;;0.00;0.00;;;14.40;99.90;;;;;;5033727;28;20217;-67
2022/09/16 00:12:29;;;;;;;0.00;0.00;;;14.40;99.90;;;;;;5050912;28;20180;-68
2022/09/16 00:14:55;;;;;;;0.00;0.00;;;14.40;99.90;;;;;;5049980;28;20272;-68
2022/09/16 00:17:21;;;;;;;0.35;0.35;;;14.40;99.90;;;;;;5036646;28;20170;-67
2022/09/16 00:19:47;;;;;;;0.00;0.00;;;14.40;99.90;;;;;;5032839;28;20189;-68
2022/09/16 00:22:13;;;;;;;0.00;0.00;;;14.40;99.90;;;;;;5030495;28;20174;-67
2022/09/16 00:24:38;;;;;;;0.75;0.40;;;14.40;99.90;;;;;;5032677;28;20190;-67
2022/09/16 00:27:04;;;;;;;0.20;0.10;;;14.40;99.90;;;;;;5031887;28;20182;-67
2022/09/16 00:29:29;;;;;;;0.03;0.03;;;14.50;99.90;;;;;;5032487;28;20202;-67
2022/09/16 00:31:55;;;;;;;0.00;0.00;;;14.40;99.90;;;;;;5032638;28;20189;-67
2022/09/16 00:34:21;;;;;;;0.00;0.00;;;14.50;99.90;;;;;;5032005;28;20182;-67
2022/09/16 00:36:46;;;;;;;0.20;0.20;;;14.50;99.90;;;;;;5032517;28;20244;-68
2022/09/16 00:39:13;;;;;;;0.10;0.10;;;14.50;99.90;;;;;;5032407;28;20205;-68
2022/09/16 00:41:39;;;;;;;0.00;0.00;;;14.50;99.90;;;;;;5032345;28;20292;-67
2022/09/16 00:44:43;;;;;;;0.20;0.20;;;14.50;99.90;;;;;;5047292;28;20280;-68
2022/09/16 00:47:09;;;;;;;0.10;0.10;;;14.50;99.90;;;;;;5017464;28;20321;-67
2022/09/16 00:49:35;;;;;;;0.00;0.00;;;14.50;99.90;;;;;;5032280;28;20206;-67
2022/09/16 00:52:04;;;;;;;0.00;0.00;;;14.50;99.90;;;;;;5046281;28;20193;-68
2022/09/16 00:54:31;;;;;;;0.00;0.00;;;14.60;99.90;;;;;;5031967;28;20247;-67
2022/09/16 00:56:58;;;;;;;0.38;0.38;;;14.60;99.90;;;;;;5031836;28;20239;-68
2022/09/16 00:59:33;;;;;;;0.00;0.00;;;14.60;99.90;;;;;;5030994;28;20182;-67
2022/09/16 01:02:05;;;;;;;0.17;0.17;;;14.60;99.90;;;;;;5036665;28;20673;-67
2022/09/16 01:04:38;;;;;;;0.52;0.30;;;14.60;99.90;;;;;;5040872;28;20186;-67
2022/09/16 01:07:03;;;;;;;0.17;0.17;;;14.60;99.90;;;;;;5047752;28;20188;-67
2022/09/16 01:09:30;;;;;;;0.00;0.00;;;14.60;99.90;;;;;;5033735;28;20787;-67
2022/09/16 01:11:56;;;;;;;0.00;0.00;;;14.60;99.90;;;;;;5041986;28;20264;-67
2022/09/16 01:17:35;;;;;;;0.00;0.00;;;14.60;99.90;;;;;;5045991;28;20307;-67
2022/09/16 01:20:15;;;;;;;0.22;0.22;;;14.60;99.90;;;;;;5042034;28;20185;-67
2022/09/16 01:23:08;;;;;;;0.03;0.03;;;14.60;99.90;;;;;;5039570;28;20177;-67
2022/09/16 01:26:11;;;;;;;0.00;0.00;;;14.60;99.90;;;;;;5033842;28;20190;-67
2022/09/16 01:28:55;;;;;;;0.03;0.03;;;14.70;99.90;;;;;;5039517;28;20223;-67
2022/09/16 01:31:35;;;;;;;0.00;0.00;;;14.70;99.90;;;;;;5038504;28;20190;-67
2022/09/16 01:34:13;;;;;;;0.00;0.00;;;14.70;99.90;;;;;;5027008;28;20181;-67
2022/09/16 01:36:41;;;;;;;0.20;0.20;;;14.70;99.90;;;;;;5050928;28;20234;-67
2022/09/16 01:39:20;;;;;;;0.15;0.15;;;14.60;99.90;;;;;;5031590;28;20189;-68
2022/09/16 01:41:58;;;;;;;0.00;0.00;;;14.60;99.90;;;;;;5032525;28;20336;-67
2022/09/16 01:44:51;;;;;;;0.00;0.00;;;14.70;99.90;;;;;;5033780;28;20193;-68
2022/09/16 01:47:42;;;;;;;0.10;0.10;;;14.60;99.90;;;;;;5021720;28;20189;-67
2022/09/16 01:50:25;;;;;;;0.08;0.08;;;14.60;99.90;;;;;;5044545;28;20229;-68
2022/09/16 01:53:17;;;;;;;0.00;0.00;;;14.70;99.90;;;;;;5042455;28;20181;-67
2022/09/16 01:56:04;;;;;;;0.35;0.10;;;14.60;99.90;;;;;;5039151;28;20515;-68
2022/09/16 01:58:38;;;;;;;0.00;0.00;;;14.70;99.90;;;;;;5048718;28;20185;-67
2022/09/16 02:01:12;;;;;;;0.20;0.20;;;14.70;99.90;;;;;;5041267;28;20571;-67
2022/09/16 02:03:41;;;;;;;0.10;0.10;;;14.70;99.90;;;;;;5043861;28;20264;-67
2022/09/16 02:06:16;;;;;;;0.00;0.00;;;14.60;99.90;;;;;;5043107;28;20182;-67
2022/09/16 02:08:46;;;;;;;0.00;0.00;;;14.60;99.90;;;;;;5053076;28;20176;-67
2022/09/16 02:11:16;;;;;;;0.00;0.00;;;14.60;99.90;;;;;;5038586;28;20598;-67
2022/09/16 02:13:48;;;;;;;0.03;0.03;;;14.50;99.90;;;;;;5042960;28;20263;-67
2022/09/16 02:16:19;;;;;;;0.10;0.10;;;14.50;99.90;;;;;;5035442;28;20192;-67
2022/09/16 02:18:52;;;;;;;0.05;0.05;;;14.50;99.90;;;;;;5047751;28;20677;-67
2022/09/16 02:21:21;;;;;;;0.00;0.00;;;14.40;99.90;;;;;;5036010;28;20189;-67
2022/09/16 02:23:53;;;;;;;0.00;0.00;;;14.30;99.90;;;;;;5051185;28;20209;-67
2022/09/16 02:26:23;;;;;;;0.00;0.00;;;14.30;99.90;;;;;;5040503;28;20248;-67
2022/09/16 02:28:52;;;;;;;0.00;0.00;;;14.20;99.90;;;;;;5037934;28;20525;-67
2022/09/16 02:31:24;;;;;;;0.20;0.20;;;14.20;99.90;;;;;;5050413;28;20197;-67
2022/09/16 02:33:54;;;;;;;0.00;0.00;;;14.20;99.90;;;;;;5042836;28;20185;-67
2022/09/16 02:36:24;;;;;;;0.00;0.00;;;14.20;99.90;;;;;;5040489;28;20591;-67
2022/09/16 02:39:00;;;;;;;0.10;0.10;;;14.30;99.90;;;;;;5037898;28;20165;-67
2022/09/16 02:41:26;;;;;;;0.10;0.10;;;14.20;99.90;;;;;;5037889;28;20201;-67
2022/09/16 02:43:52;;;;;;;0.08;0.08;;;14.30;99.90;;;;;;5049120;28;20760;-67
2022/09/16 02:46:42;;;;;;;0.00;0.00;;;14.20;99.90;;;;;;5043570;28;20596;-67
2022/09/16 02:49:40;;;;;;;0.00;0.00;;;14.30;99.90;;;;;;5048043;28;20201;-67
2022/09/16 02:52:16;;;;;;;0.00;0.00;;;14.30;99.90;;;;;;5038107;28;20239;-67
2022/09/16 02:54:54;;;;;;;0.00;0.00;;;14.30;99.90;;;;;;5031553;28;20173;-67
2022/09/16 02:57:21;;;;;;;0.00;0.00;;;14.30;99.90;;;;;;5036437;28;20193;-67
2022/09/16 02:59:47;;;;;;;0.00;0.00;;;14.30;99.90;;;;;;5033890;28;20220;-67
2022/09/16 03:02:13;;;;;;;0.17;0.05;;;14.30;99.90;;;;;;5041734;28;20233;-68
2022/09/16 03:04:38;;;;;;;0.00;0.00;;;14.30;99.90;;;;;;5045761;28;20517;-68
2022/09/16 03:07:06;;;;;;;0.10;0.10;;;14.30;99.90;;;;;;5050928;28;20182;-67
2022/09/16 03:09:34;;;;;;;0.00;0.00;;;14.30;99.90;;;;;;5035460;28;20202;-67
2022/09/16 03:12:11;;;;;;;0.00;0.00;;;14.30;99.90;;;;;;5052584;28;20186;-67
2022/09/16 03:14:51;;;;;;;0.28;0.20;;;14.30;99.90;;;;;;5037360;28;20668;-67
2022/09/16 03:17:40;;;;;;;0.00;0.00;;;14.30;99.90;;;;;;5033284;28;20264;-67
2022/09/16 03:20:17;;;;;;;0.00;0.00;;;14.30;99.90;;;;;;5044835;28;20178;-67
2022/09/16 03:23:01;;;;;;;0.30;0.30;;;14.30;99.90;;;;;;5031746;28;20177;-67
2022/09/16 03:25:44;;;;;;;0.00;0.00;;;14.40;99.90;;;;;;5039071;28;20186;-67
2022/09/16 03:28:43;;;;;;;0.03;0.00;;;14.40;99.90;;;;;;5013789;28;20273;-68
2022/09/16 03:31:37;;;;;;;0.03;0.00;;;14.40;99.90;;;;;;5049350;28;20700;-67
2022/09/16 03:34:14;;;;;;;0.05;0.05;;;14.30;99.90;;;;;;5041157;28;20193;-67
2022/09/16 03:36:44;;;;;;;0.00;0.00;;;14.30;99.90;;;;;;5032864;28;20279;-67
2022/09/16 03:39:11;;;;;;;0.20;0.20;;;14.30;99.90;;;;;;5040433;28;20174;-68
2022/09/16 03:41:38;;;;;;;0.00;0.00;;;14.30;99.90;;;;;;5045932;28;20178;-68
2022/09/16 03:44:03;;;;;;;0.08;0.08;;;14.30;99.90;;;;;;5038361;28;20185;-67
2022/09/16 03:46:29;;;;;;;0.00;0.00;;;14.30;99.90;;;;;;5047481;28;20235;-67
2022/09/16 03:48:55;;;;;;;0.05;0.05;;;14.30;99.90;;;;;;5033957;28;20196;-67
2022/09/16 03:51:22;;;;;;;0.00;0.00;;;14.20;99.90;;;;;;5050703;28;20663;-66
2022/09/16 03:53:49;;;;;;;0.00;0.00;;;14.20;99.90;;;;;;5049123;28;20646;-65
2022/09/16 03:56:14;;;;;;;0.10;0.10;;;14.10;99.90;;;;;;5049021;28;20307;-67
2022/09/16 03:58:40;;;;;;;0.00;0.00;;;14.10;99.90;;;;;;5041527;28;20685;-69
2022/09/16 04:01:05;;;;;;;0.00;0.00;;;14.10;99.90;;;;;;5036475;28;20181;-68
2022/09/16 04:03:31;;;;;;;0.00;0.00;;;14.10;99.90;;;;;;5040308;28;20305;-68
2022/09/16 04:05:56;;;;;;;0.00;0.00;;;14.20;99.90;;;;;;5032953;28;20185;-71
2022/09/16 04:08:22;;;;;;;0.17;0.17;;;14.10;99.90;;;;;;5035387;28;20645;-69
2022/09/16 04:10:59;;;;;;;0.43;0.30;;;14.10;99.90;;;;;;5039413;28;20261;-68
2022/09/16 04:13:28;;;;;;;0.10;0.10;;;14.20;99.90;;;;;;5035863;28;20215;-67
2022/09/16 04:15:53;;;;;;;0.00;0.00;;;14.20;99.90;;;;;;5035174;28;20260;-62
2022/09/16 04:18:19;;;;;;;0.00;0.00;;;14.20;99.90;;;;;;5038305;28;20269;-63
2022/09/16 04:20:44;;;;;;;0.10;0.00;;;14.20;99.90;;;;;;5033979;28;20178;-67
2022/09/16 04:23:10;;;;;;;0.15;0.15;;;14.20;99.90;;;;;;5039604;28;20729;-62
2022/09/16 04:25:35;;;;;;;0.00;0.00;;;14.20;99.90;;;;;;5040050;28;20203;-69
2022/09/16 04:28:01;;;;;;;0.00;0.00;;;14.20;99.90;;;;;;5032392;28;20171;-68
2022/09/16 04:30:27;;;;;;;0.22;0.22;;;14.10;99.90;;;;;;5049308;28;20704;-63
2022/09/16 04:32:54;;;;;;;0.00;0.00;;;14.10;99.90;;;;;;5046501;28;20189;-63
2022/09/16 04:35:19;;;;;;;0.00;0.00;;;14.10;99.90;;;;;;5043022;28;20178;-63
2022/09/16 04:37:45;;;;;;;0.00;0.00;;;14.10;99.90;;;;;;5044325;28;20184;-68
2022/09/16 04:40:11;;;;;;;0.50;0.50;;;14.10;99.90;;;;;;5036767;28;20170;-61
2022/09/16 04:42:36;;;;;;;0.43;0.43;;;14.20;99.90;;;;;;5038457;28;20234;-65
2022/09/16 04:45:02;;;;;;;0.20;0.20;;;14.40;99.90;;;;;;5044571;28;20178;-64
2022/09/16 04:47:28;;;;;;;0.00;0.00;;;14.40;99.90;;;;;;5040797;28;20192;-62
2022/09/16 04:49:54;;;;;;;0.00;0.00;;;14.40;99.90;;;;;;5037587;28;20213;-63
2022/09/16 04:52:20;;;;;;;0.00;0.00;;;14.40;99.90;;;;;;5048488;28;20224;-62
2022/09/16 04:54:45;;;;;;;0.00;0.00;;;14.40;99.90;;;;;;5033012;28;20690;-63
2022/09/16 04:57:11;;;;;;;0.00;0.00;;;14.40;99.90;;;;;;5032109;28;20174;-63
2022/09/16 04:59:36;;;;;;;0.00;0.00;;;14.30;99.90;;;;;;5032189;28;20178;-63
2022/09/16 05:02:02;;;;;;;0.10;0.00;;;14.30;99.90;;;;;;5031962;28;20631;-63
2022/09/16 05:04:27;;;;;;;0.08;0.08;;;14.30;99.90;;;;;;5032085;28;20182;-63
2022/09/16 05:06:53;;;;;;;0.00;0.00;;;14.30;99.90;;;;;;5032131;28;20181;-63
2022/09/16 05:09:21;;;;;;;0.10;0.10;;;14.20;99.90;;;;;;5032009;28;20663;-63
2022/09/16 05:11:47;;;;;;;0.00;0.00;;;14.20;99.90;;;;;;5031900;28;20178;-63
2022/09/16 05:14:15;;;;;;;0.10;0.10;;;14.20;99.90;;;;;;5032765;28;20186;-62
2022/09/16 05:16:41;;;;;;;1.85;0.15;;;14.20;99.90;;;;;;5040089;28;20181;-63
2022/09/16 05:19:07;;;;;;;0.10;0.10;;;14.20;99.90;;;;;;5033668;28;20174;-63
2022/09/16 05:21:35;;;;;;;0.10;0.10;;;14.20;99.90;;;;;;5032504;28;20652;-63
2022/09/16 05:24:02;;;;;;;0.17;0.17;;;14.20;99.90;;;;;;5043306;28;20200;-63
2022/09/16 05:26:30;;;;;;;0.00;0.00;;;14.20;99.90;;;;;;5051552;28;20185;-63
2022/09/16 05:28:59;;;;;;;0.00;0.00;;;14.20;99.90;;;;;;5051777;28;20177;-63
2022/09/16 05:31:29;;;;;;;0.00;0.00;;;14.20;99.90;;;;;;5051595;28;20589;-63
2022/09/16 05:33:56;;;;;;;0.00;0.00;;;14.30;99.90;;;;;;5051712;28;20189;-62
2022/09/16 05:36:22;;;;;;;0.00;0.00;;;14.20;99.90;;;;;;5049556;28;20633;-62
2022/09/16 05:38:48;;;;;;;0.10;0.10;;;14.20;99.90;;;;;;5051783;28;20188;-63
2022/09/16 05:41:14;;;;;;;0.00;0.00;;;14.20;99.90;;;;;;5055803;28;20188;-63
2022/09/16 05:43:39;;;;;;;0.00;0.00;;;14.20;99.90;;;;;;5054530;28;20177;-63
2022/09/16 05:46:06;;;;;;;0.05;0.05;;;14.30;99.90;;;;;;5055616;28;20173;-63
2022/09/16 05:48:33;;;;;;;0.17;0.17;;;14.30;99.90;;;;;;5055618;28;20185;-63
2022/09/16 05:51:04;;;;;;;0.00;0.00;;;14.30;99.90;;;;;;5055640;28;20624;-63
2022/09/16 05:53:31;;;;;;;0.10;0.10;;;14.30;99.90;;;;;;5055523;28;20211;-63
2022/09/16 05:56:03;;;;;;;0.00;0.00;;;14.20;99.90;;;;;;5055589;28;20192;-63
2022/09/16 05:58:31;;;;;;;0.00;0.00;;;14.10;99.90;;;;;;5055386;28;20651;-62
2022/09/16 06:01:06;;;;;;;0.00;0.00;;;14.10;99.90;;;;;;5055502;28;20265;-62
2022/09/16 06:03:33;;;;;;;0.20;0.20;;;14.10;99.90;;;;;;5055245;28;20226;-62
2022/09/16 06:06:00;;;;;;;0.10;0.10;;;14.10;99.90;;;;;;5055341;28;20261;-63
2022/09/16 06:08:28;;;;;;;0.00;0.00;;;14.10;99.90;;;;;;5055156;28;20181;-63
2022/09/16 06:10:54;;;;;;;0.08;0.08;;;14.20;99.90;;;;;;5055093;28;20213;-62
2022/09/16 06:13:19;;;;;;;0.10;0.10;;;14.20;99.90;;;;;;5055191;28;20701;-62
2022/09/16 06:15:55;;;;;;;0.00;0.00;;;14.20;99.90;;;;;;5035268;28;20620;-63
2022/09/16 06:18:22;;;;;;;0.17;0.17;;;14.30;99.90;;;;;;5035156;28;20234;-63
2022/09/16 06:20:48;;;;;;;0.20;0.20;;;14.30;99.90;;;;;;5030985;28;20257;-62
2022/09/16 06:23:14;;;;;;;0.00;0.00;;;14.30;99.90;;;;;;5015271;28;20836;-62
2022/09/16 06:25:39;;;;;;;0.00;0.00;;;14.20;99.90;;;;;;5015278;28;20242;-63
2022/09/16 06:28:05;;;;;;;0.00;0.00;;;14.20;99.90;;;;;;5015286;28;20182;-63
2022/09/16 06:30:31;;;;;;;0.00;0.00;;;14.20;99.90;;;;;;5014919;28;20215;-63
2022/09/16 06:32:57;;;;;;;0.00;0.00;;;14.20;99.90;;;;;;5015146;28;20194;-63
2022/09/16 06:35:22;;;;;;;0.52;0.45;;;14.20;99.90;;;;;;5015106;28;20190;-63
2022/09/16 06:37:48;;;;;;;0.08;0.08;;;14.20;99.90;;;;;;5015177;28;20626;-63
2022/09/16 06:40:14;;;;;;;1.65;0.10;;;14.20;99.90;;;;;;5014946;28;20264;-63
2022/09/16 06:42:39;;;;;;;0.28;0.15;;;14.30;99.90;;;;;;5014930;28;20638;-63
2022/09/16 06:45:05;;;;;;;0.03;0.03;;;14.30;99.90;;;;;;5015010;28;20187;-63
2022/09/16 06:47:32;;;;;;;0.00;0.00;;;14.30;99.90;;;;;;5014777;28;20186;-60
2022/09/16 06:49:58;;;;;;;0.00;0.00;;;14.40;99.90;;;;;;5014787;28;20301;-62
2022/09/16 06:52:24;;;;;;;0.10;0.10;;;14.40;99.90;;;;;;5013573;28;20649;-61
2022/09/16 06:54:49;;;;;;;0.00;0.00;;;14.40;99.90;;;;;;5014900;28;20207;-62
2022/09/16 06:57:17;;;;;;;0.08;0.08;;;14.40;99.90;;;;;;5014717;28;20193;-62
2022/09/16 06:59:42;;;;;;;0.00;0.00;;;14.40;99.90;;;;;;5014698;28;20266;-62
2022/09/16 07:02:09;;;;;;;0.00;0.00;;;14.30;99.90;;;;;;5014519;28;20297;-62
2022/09/16 07:04:35;;;;;;;0.00;0.00;;;14.30;99.90;;;;;;5014636;28;20189;-62
2022/09/16 07:07:00;;;;;;;0.00;0.00;;;14.30;99.90;;;;;;5014648;28;20257;-63
2022/09/16 07:09:26;;;;;;;0.00;0.00;;;14.20;99.90;;;;;;5014284;28;20209;-63
2022/09/16 07:11:51;;;;;;;0.00;0.00;;;14.20;99.90;;;;;;5014473;28;20175;-63
2022/09/16 07:14:17;;;;;;;0.00;0.00;;;14.20;99.90;;;;;;5022065;28;20189;-63
2022/09/16 07:16:42;;;;;;;0.22;0.08;;;14.20;99.90;;;;;;5034283;28;20185;-63
2022/09/16 07:19:08;;;;;;;0.03;0.03;;;14.20;99.90;;;;;;5034181;28;20694;-63
2022/09/16 07:21:33;;;;;;;0.00;0.00;;;14.30;99.90;;;;;;5023406;28;20233;-63
2022/09/16 07:24:01;;;;;;;0.00;0.00;;;14.40;99.90;;;;;;5014268;28;20601;-63
2022/09/16 07:26:29;;;;;;;0.10;0.10;;;14.40;99.90;;;;;;5014138;28;20241;-63
2022/09/16 07:28:58;;;;;;;0.00;0.00;;;14.40;99.90;;;;;;5014160;28;20266;-63
2022/09/16 07:31:26;;;;;;;0.00;0.00;;;14.40;99.90;;;;;;5013961;28;20217;-63
2022/09/16 07:33:55;;;;;;;0.00;0.00;;;14.50;99.90;;;;;;5013971;28;20658;-63
2022/09/16 07:36:23;;;;;;;0.00;0.00;;;14.50;99.90;;;;;;5014015;28;20186;-63
2022/09/16 07:38:50;;;;;;;1.08;0.10;;;14.60;99.90;;;;;;5013978;28;20719;-63
2022/09/16 07:41:18;;;;;;;0.08;0.08;;;14.70;99.90;;;;;;5013893;28;20551;-63
2022/09/16 07:43:45;;;;;;;0.10;0.10;;;14.80;99.90;;;;;;5013805;28;20199;-63
2022/09/16 07:46:12;;;;;;;0.10;0.10;;;14.90;99.90;;;;;;5013723;28;20546;-63
2022/09/16 07:48:39;;;;;;;0.00;0.00;;;14.90;99.90;;;;;;5012463;28;20232;-63
2022/09/16 07:51:07;;;;;;;0.00;0.00;;;14.90;99.90;;;;;;5013719;28;20250;-63
2022/09/16 07:53:34;;;;;;;0.25;0.25;;;15.00;99.90;;;;;;5013630;28;20175;-63
2022/09/16 07:56:08;;;;;;;0.00;0.00;;;15.00;99.90;;;;;;5013589;28;20179;-63
2022/09/16 07:58:34;;;;;;;0.10;0.10;;;15.00;99.90;;;;;;5013490;28;20532;-63
2022/09/16 08:01:00;;;;;;;0.38;0.17;;;15.20;99.90;;;;;;5013633;28;20185;-63
2022/09/16 08:03:26;;;;;;;0.00;0.00;;;15.20;99.90;;;;;;5012911;28;20238;-63
2022/09/16 08:05:51;;;;;;;0.00;0.00;;;15.30;99.90;;;;;;5013464;28;20527;-62
2022/09/16 08:08:17;;;;;;;0.45;0.40;;;15.30;99.90;;;;;;5013393;28;20265;-63
2022/09/16 08:10:42;;;;;;;0.00;0.00;;;15.30;99.90;;;;;;5013271;28;20214;-63
2022/09/16 08:13:08;;;;;;;1.27;0.10;;;15.20;99.90;;;;;;5013290;28;20249;-63
2022/09/16 08:15:34;;;;;;;0.05;0.05;;;15.20;99.90;;;;;;5031118;28;20613;-62
2022/09/16 08:17:59;;;;;;;0.08;0.08;;;15.20;99.90;;;;;;5032930;28;20577;-63
2022/09/16 08:20:25;;;;;;;0.00;0.00;;;15.20;99.90;;;;;;5031700;28;20699;-61
2022/09/16 08:22:52;;;;;;;0.00;0.00;;;15.20;99.90;;;;;;5013097;28;20257;-61
2022/09/16 08:25:17;;;;;;;0.08;0.08;;;15.20;99.90;;;;;;5013023;28;20171;-61
2022/09/16 08:27:43;;;;;;;0.00;0.00;;;15.10;99.90;;;;;;5013074;28;20185;-61
2022/09/16 08:30:10;;;;;;;0.08;0.08;;;15.10;99.90;;;;;;5012966;28;20219;-61
2022/09/16 08:32:36;;;;;;;0.00;0.00;;;15.10;99.90;;;;;;5012880;28;20206;-61
2022/09/16 08:35:02;;;;;;;0.00;0.00;;;15.10;99.90;;;;;;5013000;28;20676;-61
2022/09/16 08:37:27;;;;;;;0.20;0.20;;;15.00;99.90;;;;;;5012862;28;20177;-61
2022/09/16 08:39:53;;;;;;;0.00;0.00;;;15.00;99.90;;;;;;5012692;28;20712;-61
2022/09/16 08:42:51;;;;;;;0.00;0.00;;;15.10;99.90;;;;;;5012756;28;20183;-61
2022/09/16 08:45:58;;;;;;;0.08;0.08;;;15.20;99.90;;;;;;5013899;28;20194;-61
2022/09/16 08:48:37;;;;;;;0.00;0.00;;;15.10;99.90;;;;;;5013242;28;20191;-61
2022/09/16 08:51:07;;;;;;;0.00;0.00;;;15.20;99.90;;;;;;5012791;28;20214;-61
2022/09/16 08:53:44;;;;;;;0.15;0.15;;;15.20;99.90;;;;;;5012398;28;20265;-61
2022/09/16 08:56:14;;;;;;;0.00;0.00;;;15.20;99.90;;;;;;5012556;28;20658;-61
2022/09/16 08:58:44;;;;;;;0.00;0.00;;;15.20;99.90;;;;;;5012457;28;20183;-61
2022/09/16 09:01:21;;;;;;;0.00;0.00;;;15.10;99.90;;;;;;5011346;28;20923;-61
2022/09/16 09:03:47;;;;;;;0.38;0.30;;;15.20;99.90;;;;;;5012399;28;20234;-61
2022/09/16 09:06:51;;;;;;;0.00;0.00;;;15.30;99.90;;;;;;5012351;28;20183;-61
2022/09/16 09:09:30;;;;;;;0.00;0.00;;;15.20;99.90;;;;;;5012239;28;20179;-61
2022/09/16 09:12:13;;;;;;;0.10;0.10;;;15.30;99.90;;;;;;5012360;28;20206;-61
2022/09/16 09:15:06;;;;;;;0.13;0.13;;;15.30;99.90;;;;;;5022056;28;20236;-61
2022/09/16 09:17:47;;;;;;;0.22;0.22;;;15.30;99.90;;;;;;5031841;28;20181;-61
2022/09/16 09:20:30;;;;;;;0.10;0.10;;;15.40;99.90;;;;;;5031951;28;20181;-61
2022/09/16 09:23:34;;;;;;;0.17;0.17;;;15.40;99.90;;;;;;5012199;28;20178;-61
2022/09/16 09:26:08;;;;;;;0.00;0.00;;;15.40;99.90;;;;;;5012205;28;20263;-61
2022/09/16 09:29:11;;;;;;;0.05;0.05;;;15.50;99.90;;;;;;5011930;28;20182;-61
2022/09/16 09:32:15;;;;;;;0.00;0.00;;;15.60;99.90;;;;;;5012080;28;20190;-62
2022/09/16 09:35:18;;;;;;;0.05;0.05;;;15.60;99.90;;;;;;5011965;28;20198;-62
2022/09/16 09:38:12;;;;;;;0.00;0.00;;;15.70;99.90;;;;;;5012144;28;20570;-62
2022/09/16 09:40:52;;;;;;;0.00;0.00;;;15.60;99.90;;;;;;5010269;28;20269;-62
2022/09/16 09:43:26;;;;;;;0.00;0.00;;;15.60;99.90;;;;;;5012058;28;20261;-62
2022/09/16 09:46:10;;;;;;;0.00;0.00;;;15.70;99.90;;;;;;5011982;28;20178;-62
2022/09/16 09:48:55;;;;;;;0.30;0.30;;;15.70;99.90;;;;;;5011952;28;20185;-62
2022/09/16 09:51:31;;;;;;;0.00;0.00;;;15.80;99.90;;;;;;5011901;28;20297;-62
2022/09/16 09:54:02;;;;;;;0.00;0.00;;;15.80;99.90;;;;;;5011980;28;20182;-62
2022/09/16 09:56:35;;;;;;;0.00;0.00;;;15.70;99.90;;;;;;5011911;28;20172;-62
2022/09/16 09:59:18;;;;;;;0.00;0.00;;;15.70;99.90;;;;;;5011899;28;20265;-62
2022/09/16 10:01:44;;;;;;;0.08;0.08;;;15.70;99.90;;;;;;5011765;28;20662;-62
2022/09/16 10:04:14;;;;;;;0.10;0.10;;;15.60;99.90;;;;;;5011845;28;20191;-62
2022/09/16 10:06:41;;;;;;;0.13;0.13;;;15.60;99.90;;;;;;5011786;28;20183;-62
2022/09/16 10:09:13;;;;;;;0.00;0.00;;;15.50;99.90;;;;;;5011766;28;20182;-62
2022/09/16 10:11:47;;;;;;;0.00;0.00;;;15.30;99.90;;;;;;5011700;28;20508;-62
2022/09/16 10:14:31;;;;;;;0.03;0.03;;;15.20;99.90;;;;;;5018903;28;20212;-61
2022/09/16 10:17:01;;;;;;;0.10;0.10;;;15.10;99.90;;;;;;5031549;28;20294;-62
2022/09/16 10:19:29;;;;;;;0.00;0.00;;;15.10;99.90;;;;;;5031336;28;20181;-62
2022/09/16 10:22:07;;;;;;;0.10;0.10;;;15.00;99.90;;;;;;5018297;28;20186;-62
2022/09/16 10:24:36;;;;;;;0.30;0.30;;;15.00;99.90;;;;;;5011404;28;20187;-62
2022/09/16 10:27:18;;;;;;;0.00;0.00;;;15.00;99.90;;;;;;5015028;28;20545;-62
2022/09/16 10:29:43;;;;;;;0.20;0.20;;;15.00;99.90;;;;;;5015272;28;20264;-62
2022/09/16 10:32:16;;;;;;;0.00;0.00;;;15.00;99.90;;;;;;5015250;28;20175;-62
2022/09/16 10:34:44;;;;;;;0.00;0.00;;;15.00;99.90;;;;;;5015141;28;20179;-61
2022/09/16 10:37:11;;;;;;;0.17;0.10;;;15.00;99.90;;;;;;5015173;28;20530;-61
2022/09/16 10:39:39;;;;;;;0.35;0.25;;;15.10;99.90;;;;;;5014984;28;20198;-62
2022/09/16 10:42:17;;;;;;;0.05;0.05;;;15.10;99.90;;;;;;5015018;28;20692;-62
2022/09/16 10:44:44;;;;;;;0.00;0.00;;;15.30;99.90;;;;;;5015095;28;20670;-62
2022/09/16 10:47:28;;;;;;;0.00;0.00;;;15.50;99.90;;;;;;5014757;28;20661;-62
2022/09/16 10:50:00;;;;;;;0.10;0.10;;;15.60;99.90;;;;;;5014642;28;20199;-62
2022/09/16 10:52:29;;;;;;;0.00;0.00;;;15.60;99.90;;;;;;5014817;28;20653;-62
2022/09/16 10:54:55;;;;;;;0.30;0.30;;;15.60;99.90;;;;;;5014611;28;20178;-62
2022/09/16 10:57:24;;;;;;;0.00;0.00;;;15.70;99.90;;;;;;5014639;28;20218;-62
2022/09/16 11:00:17;;;;;;;0.00;0.00;;;15.70;99.90;;;;;;5014824;28;20581;-62
2022/09/16 11:02:55;;;;;;;0.03;0.03;;;15.70;99.90;;;;;;5014589;28;20226;-62
2022/09/16 11:05:30;;;;;;;0.03;0.03;;;15.70;99.90;;;;;;5014573;28;20189;-61
2022/09/16 11:08:15;;;;;;;0.00;0.00;;;15.80;99.90;;;;;;5014523;28;20233;-62
2022/09/16 11:10:54;;;;;;;0.05;0.05;;;15.90;99.90;;;;;;5014211;28;20273;-62
2022/09/16 11:13:38;;;;;;;0.00;0.00;;;16.10;99.90;;;;;;5014339;28;20229;-62
2022/09/16 11:16:14;;;;;;;0.00;0.00;;;16.20;99.90;;;;;;5014448;28;20182;-62
2022/09/16 11:18:45;;;;;;;0.00;0.00;;;16.40;99.90;;;;;;5014394;28;20213;-62
2022/09/16 11:21:30;;;;;;;0.10;0.10;;;16.60;99.90;;;;;;5021322;28;20175;-62
2022/09/16 11:24:20;;;;;;;0.00;0.00;;;16.80;99.90;;;;;;5034232;28;20316;-62
2022/09/16 11:26:58;;;;;;;0.17;0.10;;;16.90;99.90;;;;;;5034159;28;20178;-62
2022/09/16 11:30:03;;;;;;;0.17;0.00;;;17.40;99.90;;;;;;5033927;28;20174;-62
2022/09/16 11:33:05;;;;;;;0.05;0.05;;;18.00;99.90;;;;;;5033848;28;20185;-62
2022/09/16 11:36:12;;;;;;;0.00;0.00;;;18.40;99.90;;;;;;5033688;28;20186;-62
2022/09/16 11:38:46;;;;;;;0.00;0.00;;;18.70;99.90;;;;;;5031963;28;20555;-62
2022/09/16 11:41:30;;;;;;;0.10;0.10;;;18.50;99.90;;;;;;5033679;28;20273;-63
2022/09/16 11:44:22;;;;;;;0.00;0.00;;;18.10;99.90;;;;;;5033744;28;20599;-62
2022/09/16 11:47:09;;;;;;;0.00;0.00;;;17.90;99.90;;;;;;5033663;28;20257;-62
2022/09/16 11:49:54;;;;;;;0.00;0.00;;;17.60;99.90;;;;;;5033403;28;20206;-62
2022/09/16 11:52:48;;;;;;;0.00;0.00;;;17.70;99.90;;;;;;5033492;28;20235;-62
2022/09/16 11:55:44;;;;;;;1.25;1.10;;;17.90;99.90;;;;;;5033351;28;20200;-62
2022/09/16 11:58:25;;;;;;;0.10;0.10;;;18.10;99.90;;;;;;5033323;28;20170;-62
2022/09/16 12:00:56;;;;;;;0.00;0.00;;;18.20;99.90;;;;;;5033247;28;20182;-63
2022/09/16 12:03:30;;;;;;;0.00;0.00;;;18.30;99.90;;;;;;5033079;28;20260;-62
2022/09/16 12:06:04;;;;;;;0.00;0.00;;;18.30;99.90;;;;;;5033314;28;20223;-62
2022/09/16 12:08:59;;;;;;;0.00;0.00;;;18.40;99.90;;;;;;5033015;28;20182;-62
2022/09/16 12:11:38;;;;;;;0.00;0.00;;;18.50;99.90;;;;;;5032650;28;20221;-62
2022/09/16 12:14:17;;;;;;;0.20;0.20;;;18.50;99.90;;;;;;5027401;28;20187;-62
2022/09/16 12:16:58;;;;;;;0.00;0.00;;;18.70;99.90;;;;;;5013372;28;20645;-62
2022/09/16 12:19:52;;;;;;;0.08;0.08;;;18.90;99.20;;;;;;5013240;28;20282;-62
2022/09/16 12:22:32;;;;;;;0.05;0.05;;;18.80;98.90;;;;;;5029391;28;20228;-63
2022/09/16 12:25:37;;;;;;;0.00;0.00;;;18.70;98.60;;;;;;5031645;28;20395;-63
2022/09/16 12:28:12;;;;;;;0.00;0.00;;;18.70;99.10;;;;;;5032889;28;20189;-63
2022/09/16 12:30:44;;;;;;;0.00;0.00;;;18.60;99.10;;;;;;5032592;28;20572;-63
2022/09/16 12:33:31;;;;;;;0.00;0.00;;;18.50;99.40;;;;;;5032588;28;20173;-63
2022/09/16 12:36:09;;;;;;;0.00;0.00;;;18.30;99.40;;;;;;5032726;28;20177;-62
2022/09/16 12:38:35;;;;;;;0.00;0.00;;;18.10;99.90;;;;;;5032428;28;20174;-62
2022/09/16 12:41:38;;;;;;;0.00;0.00;;;18.00;99.90;;;;;;5032567;28;20269;-62
2022/09/16 12:44:22;;;;;;;0.00;0.00;;;18.10;99.90;;;;;;5032566;28;20690;-62
2022/09/16 12:46:53;;;;;;;0.00;0.00;;;18.10;99.90;;;;;;5032523;28;20534;-62
2022/09/16 12:49:37;;;;;;;0.10;0.10;;;18.10;99.30;;;;;;5032300;28;20174;-63
2022/09/16 12:52:06;;;;;;;0.00;0.00;;;18.20;99.90;;;;;;5032620;28;20177;-63
2022/09/16 12:54:43;;;;;;;0.00;0.00;;;18.50;99.90;;;;;;5032245;28;20185;-63
2022/09/16 12:57:44;;;;;;;0.00;0.00;;;19.00;99.90;;;;;;5032352;28;20240;-62
2022/09/16 13:00:35;;;;;;;0.00;0.00;;;19.40;99.50;;;;;;5032287;28;20166;-63
2022/09/16 13:03:14;;;;;;;0.05;0.05;;;20.00;98.10;;;;;;5031982;28;20681;-63
2022/09/16 13:05:45;;;;;;;0.00;0.00;;;20.10;93.70;;;;;;5032208;28;20261;-62
2022/09/16 13:08:29;;;;;;;0.00;0.00;;;19.90;92.30;;;;;;5032017;28;20178;-62
2022/09/16 13:11:04;;;;;;;0.00;0.00;;;19.60;91.10;;;;;;5031965;28;20695;-62
2022/09/16 13:13:39;;;;;;;0.00;0.00;;;19.20;91.50;;;;;;5047171;28;20774;-62
2022/09/16 13:16:07;;;;;;;0.00;0.00;;;18.90;92.50;;;;;;5045430;28;20177;-62
2022/09/16 13:19:17;;;;;;;0.00;0.00;;;18.60;92.50;;;;;;5051619;28;20263;-62
2022/09/16 13:21:44;;;;;;;0.00;0.00;;;18.70;93.40;;;;;;5041443;28;20193;-63